Shawbury (EGOS)

METAR

EGOS 211250Z 23011KT 9999 FEW022 BKN250 14/09 Q1024 BLU NOSIG

QNH
1024
TEMP
14 °C
TAF

TAF EGOS 180646Z 1718/1823 CNL